sensor_id;sensor_type;location;lat;lon;timestamp;temperature;humidity
19365;DHT22;9818;48.382;10.850;2022-10-26T00:00:50;11.50;99.90
19365;DHT22;9818;48.382;10.850;2022-10-26T00:03:19;11.60;99.90
19365;DHT22;9818;48.382;10.850;2022-10-26T00:05:47;11.50;99.90
19365;DHT22;9818;48.382;10.850;2022-10-26T00:08:18;11.40;99.90
19365;DHT22;9818;48.382;10.850;2022-10-26T00:10:47;11.40;99.90
19365;DHT22;9818;48.382;10.850;2022-10-26T00:13:15;11.40;99.90
19365;DHT22;9818;48.382;10.850;2022-10-26T00:15:43;11.50;99.90
19365;DHT22;9818;48.382;10.850;2022-10-26T00:18:12;11.50;99.90
19365;DHT22;9818;48.382;10.850;2022-10-26T00:20:40;11.50;99.90
19365;DHT22;9818;48.382;10.850;2022-10-26T00:23:09;11.50;99.90
19365;DHT22;9818;48.382;10.850;2022-10-26T00:25:40;11.40;99.90
19365;DHT22;9818;48.382;10.850;2022-10-26T00:28:09;11.40;99.90
19365;DHT22;9818;48.382;10.850;2022-10-26T00:30:37;11.40;99.90
19365;DHT22;9818;48.382;10.850;2022-10-26T00:33:08;11.50;99.90
19365;DHT22;9818;48.382;10.850;2022-10-26T00:35:37;11.50;99.90
19365;DHT22;9818;48.382;10.850;2022-10-26T00:38:05;11.60;99.90
19365;DHT22;9818;48.382;10.850;2022-10-26T00:40:34;11.60;99.90
19365;DHT22;9818;48.382;10.850;2022-10-26T00:43:05;11.60;99.90
19365;DHT22;9818;48.382;10.850;2022-10-26T00:45:37;11.60;99.90
19365;DHT22;9818;48.382;10.850;2022-10-26T00:48:05;11.60;99.90
19365;DHT22;9818;48.382;10.850;2022-10-26T00:50:36;11.60;99.90
19365;DHT22;9818;48.382;10.850;2022-10-26T00:53:06;11.60;99.90
19365;DHT22;9818;48.382;10.850;2022-10-26T00:55:36;11.60;99.90
19365;DHT22;9818;48.382;10.850;2022-10-26T00:58:07;11.60;99.90
19365;DHT22;9818;48.382;10.850;2022-10-26T01:00:37;11.50;99.90
19365;DHT22;9818;48.382;10.850;2022-10-26T01:03:06;11.50;99.90
19365;DHT22;9818;48.382;10.850;2022-10-26T01:05:36;11.50;99.90
19365;DHT22;9818;48.382;10.850;2022-10-26T01:23:27;11.10;99.90
19365;DHT22;9818;48.382;10.850;2022-10-26T01:26:29;11.00;99.90
19365;DHT22;9818;48.382;10.850;2022-10-26T01:32:09;11.10;99.90
19365;DHT22;9818;48.382;10.850;2022-10-26T01:34:43;11.10;99.90
19365;DHT22;9818;48.382;10.850;2022-10-26T01:37:16;11.10;99.90
19365;DHT22;9818;48.382;10.850;2022-10-26T01:39:51;11.10;99.90
19365;DHT22;9818;48.382;10.850;2022-10-26T01:42:22;11.10;99.90
19365;DHT22;9818;48.382;10.850;2022-10-26T01:44:58;11.10;99.90
19365;DHT22;9818;48.382;10.850;2022-10-26T01:47:33;11.10;99.90
19365;DHT22;9818;48.382;10.850;2022-10-26T01:50:05;11.10;99.90
19365;DHT22;9818;48.382;10.850;2022-10-26T01:52:34;11.20;99.90
19365;DHT22;9818;48.382;10.850;2022-10-26T01:55:32;11.10;99.90
19365;DHT22;9818;48.382;10.850;2022-10-26T01:58:04;11.20;99.90
19365;DHT22;9818;48.382;10.850;2022-10-26T02:00:39;11.20;99.90
19365;DHT22;9818;48.382;10.850;2022-10-26T02:03:20;11.20;99.90
19365;DHT22;9818;48.382;10.850;2022-10-26T02:06:01;11.20;99.90
19365;DHT22;9818;48.382;10.850;2022-10-26T02:08:57;11.20;99.90
19365;DHT22;9818;48.382;10.850;2022-10-26T02:11:37;11.20;99.90
19365;DHT22;9818;48.382;10.850;2022-10-26T02:14:14;11.20;99.90
19365;DHT22;9818;48.382;10.850;2022-10-26T02:16:52;11.30;99.90
19365;DHT22;9818;48.382;10.850;2022-10-26T02:19:32;11.30;99.90
19365;DHT22;9818;48.382;10.850;2022-10-26T02:22:11;11.30;99.90
19365;DHT22;9818;48.382;10.850;2022-10-26T02:24:40;11.40;99.90
19365;DHT22;9818;48.382;10.850;2022-10-26T02:27:15;11.40;99.90
19365;DHT22;9818;48.382;10.850;2022-10-26T02:29:47;11.40;99.90
19365;DHT22;9818;48.382;10.850;2022-10-26T02:32:19;11.40;99.90
19365;DHT22;9818;48.382;10.850;2022-10-26T02:34:53;11.40;99.90
19365;DHT22;9818;48.382;10.850;2022-10-26T02:37:23;11.30;99.90
19365;DHT22;9818;48.382;10.850;2022-10-26T02:39:54;11.30;99.90
19365;DHT22;9818;48.382;10.850;2022-10-26T02:42:26;11.30;99.90
19365;DHT22;9818;48.382;10.850;2022-10-26T02:44:58;11.30;99.90
19365;DHT22;9818;48.382;10.850;2022-10-26T02:47:27;11.30;99.90
19365;DHT22;9818;48.382;10.850;2022-10-26T02:49:59;11.30;99.90
19365;DHT22;9818;48.382;10.850;2022-10-26T02:52:35;11.30;99.90
19365;DHT22;9818;48.382;10.850;2022-10-26T02:55:11;11.30;99.90
19365;DHT22;9818;48.382;10.850;2022-10-26T02:57:44;11.40;99.90
19365;DHT22;9818;48.382;10.850;2022-10-26T03:00:16;11.40;99.90
19365;DHT22;9818;48.382;10.850;2022-10-26T03:02:51;11.40;99.90
19365;DHT22;9818;48.382;10.850;2022-10-26T03:05:27;11.40;99.90
19365;DHT22;9818;48.382;10.850;2022-10-26T03:07:59;11.50;99.90
19365;DHT22;9818;48.382;10.850;2022-10-26T03:10:28;11.50;99.90
19365;DHT22;9818;48.382;10.850;2022-10-26T03:12:56;11.50;99.90
19365;DHT22;9818;48.382;10.850;2022-10-26T03:15:25;11.40;99.90
19365;DHT22;9818;48.382;10.850;2022-10-26T03:17:54;11.40;99.90
19365;DHT22;9818;48.382;10.850;2022-10-26T03:20:25;11.40;99.90
19365;DHT22;9818;48.382;10.850;2022-10-26T03:22:54;11.40;99.90
19365;DHT22;9818;48.382;10.850;2022-10-26T03:25:23;11.50;99.90
19365;DHT22;9818;48.382;10.850;2022-10-26T03:27:59;11.50;99.90
19365;DHT22;9818;48.382;10.850;2022-10-26T03:30:28;11.50;99.90
19365;DHT22;9818;48.382;10.850;2022-10-26T03:32:57;11.50;99.90
19365;DHT22;9818;48.382;10.850;2022-10-26T03:35:28;11.50;99.90
19365;DHT22;9818;48.382;10.850;2022-10-26T03:37:57;11.50;99.90
19365;DHT22;9818;48.382;10.850;2022-10-26T03:40:26;11.60;99.90
19365;DHT22;9818;48.382;10.850;2022-10-26T03:42:55;11.60;99.90
19365;DHT22;9818;48.382;10.850;2022-10-26T03:45:23;11.60;99.90
19365;DHT22;9818;48.382;10.850;2022-10-26T03:47:52;11.70;99.90
19365;DHT22;9818;48.382;10.850;2022-10-26T03:50:21;11.60;99.90
19365;DHT22;9818;48.382;10.850;2022-10-26T03:52:52;11.50;99.90
19365;DHT22;9818;48.382;10.850;2022-10-26T03:55:20;11.50;99.90
19365;DHT22;9818;48.382;10.850;2022-10-26T03:57:48;11.50;99.90
19365;DHT22;9818;48.382;10.850;2022-10-26T04:00:17;11.60;99.90
19365;DHT22;9818;48.382;10.850;2022-10-26T04:02:52;11.70;99.90
19365;DHT22;9818;48.382;10.850;2022-10-26T04:05:21;11.70;99.90
19365;DHT22;9818;48.382;10.850;2022-10-26T04:07:55;11.80;99.90
19365;DHT22;9818;48.382;10.850;2022-10-26T04:10:24;11.60;99.90
19365;DHT22;9818;48.382;10.850;2022-10-26T04:12:53;11.60;99.90
19365;DHT22;9818;48.382;10.850;2022-10-26T04:15:23;11.50;99.90
19365;DHT22;9818;48.382;10.850;2022-10-26T04:17:54;11.60;99.90
19365;DHT22;9818;48.382;10.850;2022-10-26T04:20:22;11.70;99.90
19365;DHT22;9818;48.382;10.850;2022-10-26T04:23:00;11.60;99.90
19365;DHT22;9818;48.382;10.850;2022-10-26T04:25:29;11.70;99.90
19365;DHT22;9818;48.382;10.850;2022-10-26T04:27:58;11.80;99.90
19365;DHT22;9818;48.382;10.850;2022-10-26T04:30:27;11.80;99.90
19365;DHT22;9818;48.382;10.850;2022-10-26T04:32:55;11.80;99.90
19365;DHT22;9818;48.382;10.850;2022-10-26T04:35:24;11.80;99.90
19365;DHT22;9818;48.382;10.850;2022-10-26T04:37:55;11.70;99.90
19365;DHT22;9818;48.382;10.850;2022-10-26T04:40:26;11.70;99.90
19365;DHT22;9818;48.382;10.850;2022-10-26T04:42:55;11.70;99.90
19365;DHT22;9818;48.382;10.850;2022-10-26T04:45:24;11.80;99.90
19365;DHT22;9818;48.382;10.850;2022-10-26T04:47:58;11.70;99.90
19365;DHT22;9818;48.382;10.850;2022-10-26T04:50:27;11.80;99.90
19365;DHT22;9818;48.382;10.850;2022-10-26T04:52:55;11.70;99.90
19365;DHT22;9818;48.382;10.850;2022-10-26T04:55:26;11.80;99.90
19365;DHT22;9818;48.382;10.850;2022-10-26T04:57:55;11.70;99.90
19365;DHT22;9818;48.382;10.850;2022-10-26T05:00:23;11.50;99.90
19365;DHT22;9818;48.382;10.850;2022-10-26T05:02:57;11.40;99.90
19365;DHT22;9818;48.382;10.850;2022-10-26T05:05:25;11.50;99.90
19365;DHT22;9818;48.382;10.850;2022-10-26T05:07:54;11.60;99.90
19365;DHT22;9818;48.382;10.850;2022-10-26T05:10:23;11.70;99.90
19365;DHT22;9818;48.382;10.850;2022-10-26T05:12:54;11.70;99.90
19365;DHT22;9818;48.382;10.850;2022-10-26T05:15:23;11.60;99.90
19365;DHT22;9818;48.382;10.850;2022-10-26T05:17:55;11.70;99.90
19365;DHT22;9818;48.382;10.850;2022-10-26T05:20:24;11.70;99.90
19365;DHT22;9818;48.382;10.850;2022-10-26T05:22:55;11.70;99.90
19365;DHT22;9818;48.382;10.850;2022-10-26T05:25:23;11.80;99.90
19365;DHT22;9818;48.382;10.850;2022-10-26T05:27:58;11.80;99.90
19365;DHT22;9818;48.382;10.850;2022-10-26T05:30:27;11.80;99.90
19365;DHT22;9818;48.382;10.850;2022-10-26T05:32:56;11.80;99.90
19365;DHT22;9818;48.382;10.850;2022-10-26T05:35:25;11.70;99.90
19365;DHT22;9818;48.382;10.850;2022-10-26T05:37:54;11.70;99.90
19365;DHT22;9818;48.382;10.850;2022-10-26T05:40:22;11.70;99.90
19365;DHT22;9818;48.382;10.850;2022-10-26T05:42:51;11.60;99.90
19365;DHT22;9818;48.382;10.850;2022-10-26T05:45:22;11.50;99.90
19365;DHT22;9818;48.382;10.850;2022-10-26T05:47:50;11.50;99.90
19365;DHT22;9818;48.382;10.850;2022-10-26T05:50:18;11.50;99.90
19365;DHT22;9818;48.382;10.850;2022-10-26T05:52:47;11.60;99.90
19365;DHT22;9818;48.382;10.850;2022-10-26T05:55:16;11.60;99.90
19365;DHT22;9818;48.382;10.850;2022-10-26T05:57:45;11.60;99.90
19365;DHT22;9818;48.382;10.850;2022-10-26T06:00:17;11.60;99.90
19365;DHT22;9818;48.382;10.850;2022-10-26T06:02:57;11.60;99.90
19365;DHT22;9818;48.382;10.850;2022-10-26T06:05:28;11.60;99.90
19365;DHT22;9818;48.382;10.850;2022-10-26T06:08:00;11.70;99.90
19365;DHT22;9818;48.382;10.850;2022-10-26T06:10:29;11.70;99.90
19365;DHT22;9818;48.382;10.850;2022-10-26T06:12:58;11.70;99.90
19365;DHT22;9818;48.382;10.850;2022-10-26T06:15:26;11.70;99.90
19365;DHT22;9818;48.382;10.850;2022-10-26T06:18:00;11.80;99.90
19365;DHT22;9818;48.382;10.850;2022-10-26T06:20:33;11.80;99.90
19365;DHT22;9818;48.382;10.850;2022-10-26T06:23:08;11.90;99.90
19365;DHT22;9818;48.382;10.850;2022-10-26T06:25:40;12.00;99.90
19365;DHT22;9818;48.382;10.850;2022-10-26T06:28:14;12.00;99.90
19365;DHT22;9818;48.382;10.850;2022-10-26T06:30:47;12.10;99.90
19365;DHT22;9818;48.382;10.850;2022-10-26T06:33:18;12.10;99.90
19365;DHT22;9818;48.382;10.850;2022-10-26T06:35:48;12.10;99.90
19365;DHT22;9818;48.382;10.850;2022-10-26T06:38:18;12.00;99.90
19365;DHT22;9818;48.382;10.850;2022-10-26T06:40:48;12.00;99.90
19365;DHT22;9818;48.382;10.850;2022-10-26T06:43:19;12.10;99.90
19365;DHT22;9818;48.382;10.850;2022-10-26T06:45:51;12.10;99.90
19365;DHT22;9818;48.382;10.850;2022-10-26T06:48:24;12.30;99.90
19365;DHT22;9818;48.382;10.850;2022-10-26T06:50:55;12.30;99.90
19365;DHT22;9818;48.382;10.850;2022-10-26T06:53:25;12.30;99.90
19365;DHT22;9818;48.382;10.850;2022-10-26T06:55:54;12.30;99.90
19365;DHT22;9818;48.382;10.850;2022-10-26T06:58:26;12.30;99.90
19365;DHT22;9818;48.382;10.850;2022-10-26T07:00:55;12.30;99.90
19365;DHT22;9818;48.382;10.850;2022-10-26T07:03:27;12.30;99.90
19365;DHT22;9818;48.382;10.850;2022-10-26T07:05:55;12.40;99.90
19365;DHT22;9818;48.382;10.850;2022-10-26T07:08:24;12.50;99.90
19365;DHT22;9818;48.382;10.850;2022-10-26T07:10:52;12.50;99.90
19365;DHT22;9818;48.382;10.850;2022-10-26T07:13:20;12.50;99.90
19365;DHT22;9818;48.382;10.850;2022-10-26T07:15:49;12.50;99.90
19365;DHT22;9818;48.382;10.850;2022-10-26T07:18:17;12.60;99.90
19365;DHT22;9818;48.382;10.850;2022-10-26T07:20:48;12.70;99.90
19365;DHT22;9818;48.382;10.850;2022-10-26T07:23:17;12.70;99.90
19365;DHT22;9818;48.382;10.850;2022-10-26T07:25:47;12.90;99.90
19365;DHT22;9818;48.382;10.850;2022-10-26T07:28:15;13.30;99.90
19365;DHT22;9818;48.382;10.850;2022-10-26T07:30:44;13.80;99.90
19365;DHT22;9818;48.382;10.850;2022-10-26T07:33:13;14.00;99.90
19365;DHT22;9818;48.382;10.850;2022-10-26T07:35:41;14.20;99.90
19365;DHT22;9818;48.382;10.850;2022-10-26T07:38:12;14.10;99.90
19365;DHT22;9818;48.382;10.850;2022-10-26T07:40:40;14.10;99.90
19365;DHT22;9818;48.382;10.850;2022-10-26T07:43:09;14.20;99.90
19365;DHT22;9818;48.382;10.850;2022-10-26T07:45:37;14.30;99.90
19365;DHT22;9818;48.382;10.850;2022-10-26T07:48:06;14.50;99.90
19365;DHT22;9818;48.382;10.850;2022-10-26T07:50:34;15.00;99.90
19365;DHT22;9818;48.382;10.850;2022-10-26T07:53:03;14.90;99.90
19365;DHT22;9818;48.382;10.850;2022-10-26T07:55:34;14.90;99.90
19365;DHT22;9818;48.382;10.850;2022-10-26T07:58:03;15.00;99.90
19365;DHT22;9818;48.382;10.850;2022-10-26T08:00:32;14.90;99.90
19365;DHT22;9818;48.382;10.850;2022-10-26T08:03:00;14.90;99.90
19365;DHT22;9818;48.382;10.850;2022-10-26T08:05:29;15.30;99.90
19365;DHT22;9818;48.382;10.850;2022-10-26T08:07:57;15.60;99.90
19365;DHT22;9818;48.382;10.850;2022-10-26T08:10:26;16.30;99.90
19365;DHT22;9818;48.382;10.850;2022-10-26T08:12:57;16.50;99.90
19365;DHT22;9818;48.382;10.850;2022-10-26T08:15:26;16.70;99.90
19365;DHT22;9818;48.382;10.850;2022-10-26T08:17:54;16.90;99.90
19365;DHT22;9818;48.382;10.850;2022-10-26T08:20:23;16.70;99.90
19365;DHT22;9818;48.382;10.850;2022-10-26T08:22:51;16.70;99.90
19365;DHT22;9818;48.382;10.850;2022-10-26T08:25:20;16.40;99.90
19365;DHT22;9818;48.382;10.850;2022-10-26T08:27:49;16.20;99.90
19365;DHT22;9818;48.382;10.850;2022-10-26T08:30:20;16.50;99.90
19365;DHT22;9818;48.382;10.850;2022-10-26T08:32:48;16.40;99.90
19365;DHT22;9818;48.382;10.850;2022-10-26T08:35:25;18.20;99.90
19365;DHT22;9818;48.382;10.850;2022-10-26T08:37:53;19.20;99.90
19365;DHT22;9818;48.382;10.850;2022-10-26T08:40:25;19.20;99.90
19365;DHT22;9818;48.382;10.850;2022-10-26T08:42:57;19.10;99.90
19365;DHT22;9818;48.382;10.850;2022-10-26T08:45:32;18.80;99.90
19365;DHT22;9818;48.382;10.850;2022-10-26T08:48:06;18.40;99.90
19365;DHT22;9818;48.382;10.850;2022-10-26T08:50:39;19.70;99.90
19365;DHT22;9818;48.382;10.850;2022-10-26T08:53:17;22.30;99.90
19365;DHT22;9818;48.382;10.850;2022-10-26T08:55:51;23.10;99.90
19365;DHT22;9818;48.382;10.850;2022-10-26T08:58:24;23.90;99.90
19365;DHT22;9818;48.382;10.850;2022-10-26T09:00:57;23.40;99.90
19365;DHT22;9818;48.382;10.850;2022-10-26T09:03:28;22.70;99.90
19365;DHT22;9818;48.382;10.850;2022-10-26T09:06:07;22.20;99.90
19365;DHT22;9818;48.382;10.850;2022-10-26T09:08:48;22.10;99.90
19365;DHT22;9818;48.382;10.850;2022-10-26T09:11:26;22.10;99.90
19365;DHT22;9818;48.382;10.850;2022-10-26T09:14:03;22.70;99.90
19365;DHT22;9818;48.382;10.850;2022-10-26T09:16:45;23.30;99.90
19365;DHT22;9818;48.382;10.850;2022-10-26T09:22:06;21.20;99.90
19365;DHT22;9818;48.382;10.850;2022-10-26T09:24:43;20.80;99.90
19365;DHT22;9818;48.382;10.850;2022-10-26T09:27:15;21.00;99.90
19365;DHT22;9818;48.382;10.850;2022-10-26T09:29:48;21.10;99.90
19365;DHT22;9818;48.382;10.850;2022-10-26T09:32:22;20.60;99.90
19365;DHT22;9818;48.382;10.850;2022-10-26T09:34:56;20.40;99.90
19365;DHT22;9818;48.382;10.850;2022-10-26T09:37:28;20.50;99.90
19365;DHT22;9818;48.382;10.850;2022-10-26T09:40:06;20.60;99.90
19365;DHT22;9818;48.382;10.850;2022-10-26T09:42:40;20.70;99.90
19365;DHT22;9818;48.382;10.850;2022-10-26T09:45:14;20.80;99.90
19365;DHT22;9818;48.382;10.850;2022-10-26T09:47:49;21.10;99.90
19365;DHT22;9818;48.382;10.850;2022-10-26T09:50:22;21.00;99.90
19365;DHT22;9818;48.382;10.850;2022-10-26T09:52:51;21.50;99.90
19365;DHT22;9818;48.382;10.850;2022-10-26T09:55:20;21.30;99.90
19365;DHT22;9818;48.382;10.850;2022-10-26T09:57:51;21.00;99.90
19365;DHT22;9818;48.382;10.850;2022-10-26T10:00:22;20.50;99.90
19365;DHT22;9818;48.382;10.850;2022-10-26T10:02:55;20.30;99.90
19365;DHT22;9818;48.382;10.850;2022-10-26T10:05:29;20.20;99.90
19365;DHT22;9818;48.382;10.850;2022-10-26T10:08:14;20.10;99.90
19365;DHT22;9818;48.382;10.850;2022-10-26T10:10:54;20.30;99.90
19365;DHT22;9818;48.382;10.850;2022-10-26T10:13:24;20.40;99.90
19365;DHT22;9818;48.382;10.850;2022-10-26T10:15:54;20.30;99.90
19365;DHT22;9818;48.382;10.850;2022-10-26T10:18:26;20.40;99.90
19365;DHT22;9818;48.382;10.850;2022-10-26T10:20:56;20.60;99.90
19365;DHT22;9818;48.382;10.850;2022-10-26T10:23:29;20.70;99.90
19365;DHT22;9818;48.382;10.850;2022-10-26T10:26:03;20.60;99.90
19365;DHT22;9818;48.382;10.850;2022-10-26T10:28:31;20.50;99.90
19365;DHT22;9818;48.382;10.850;2022-10-26T10:31:01;20.80;99.90
19365;DHT22;9818;48.382;10.850;2022-10-26T10:33:36;21.00;99.90
19365;DHT22;9818;48.382;10.850;2022-10-26T10:36:06;20.70;99.90
19365;DHT22;9818;48.382;10.850;2022-10-26T10:38:39;20.70;99.90
19365;DHT22;9818;48.382;10.850;2022-10-26T10:44:04;20.80;99.90
19365;DHT22;9818;48.382;10.850;2022-10-26T10:46:33;20.80;99.90
19365;DHT22;9818;48.382;10.850;2022-10-26T10:49:05;20.80;99.90
19365;DHT22;9818;48.382;10.850;2022-10-26T10:51:35;21.00;99.90
19365;DHT22;9818;48.382;10.850;2022-10-26T10:54:05;20.80;99.90
19365;DHT22;9818;48.382;10.850;2022-10-26T10:56:39;20.70;99.90
19365;DHT22;9818;48.382;10.850;2022-10-26T10:59:20;20.60;99.90
19365;DHT22;9818;48.382;10.850;2022-10-26T11:01:54;20.50;99.90
19365;DHT22;9818;48.382;10.850;2022-10-26T11:04:33;20.40;99.90
19365;DHT22;9818;48.382;10.850;2022-10-26T11:07:04;20.40;99.90
19365;DHT22;9818;48.382;10.850;2022-10-26T11:09:34;20.50;99.90
19365;DHT22;9818;48.382;10.850;2022-10-26T11:12:06;20.40;99.90
19365;DHT22;9818;48.382;10.850;2022-10-26T11:14:37;20.60;99.90
19365;DHT22;9818;48.382;10.850;2022-10-26T11:17:07;20.90;99.90
19365;DHT22;9818;48.382;10.850;2022-10-26T11:19:42;20.70;99.90
19365;DHT22;9818;48.382;10.850;2022-10-26T11:22:13;20.70;99.90
19365;DHT22;9818;48.382;10.850;2022-10-26T11:24:43;20.90;99.90
19365;DHT22;9818;48.382;10.850;2022-10-26T11:27:13;21.00;99.90
19365;DHT22;9818;48.382;10.850;2022-10-26T11:29:44;21.30;99.90
19365;DHT22;9818;48.382;10.850;2022-10-26T11:32:14;21.20;99.90
19365;DHT22;9818;48.382;10.850;2022-10-26T11:34:48;21.20;99.90
19365;DHT22;9818;48.382;10.850;2022-10-26T11:37:19;21.90;99.90
19365;DHT22;9818;48.382;10.850;2022-10-26T11:39:56;22.20;99.90
19365;DHT22;9818;48.382;10.850;2022-10-26T11:42:29;22.10;99.90
19365;DHT22;9818;48.382;10.850;2022-10-26T11:45:00;22.00;99.90
19365;DHT22;9818;48.382;10.850;2022-10-26T11:47:32;22.00;99.90
19365;DHT22;9818;48.382;10.850;2022-10-26T11:50:10;21.50;99.90
19365;DHT22;9818;48.382;10.850;2022-10-26T11:52:42;20.90;99.90
19365;DHT22;9818;48.382;10.850;2022-10-26T11:55:12;20.50;99.90
19365;DHT22;9818;48.382;10.850;2022-10-26T11:57:40;20.50;99.90
19365;DHT22;9818;48.382;10.850;2022-10-26T12:00:13;20.60;99.90
19365;DHT22;9818;48.382;10.850;2022-10-26T12:02:44;20.40;99.90
19365;DHT22;9818;48.382;10.850;2022-10-26T12:05:21;20.30;99.90
19365;DHT22;9818;48.382;10.850;2022-10-26T12:07:50;20.20;99.90
19365;DHT22;9818;48.382;10.850;2022-10-26T12:10:21;20.40;99.90
19365;DHT22;9818;48.382;10.850;2022-10-26T12:12:51;20.30;99.90
19365;DHT22;9818;48.382;10.850;2022-10-26T12:15:22;20.20;99.90
19365;DHT22;9818;48.382;10.850;2022-10-26T12:17:54;20.40;99.90
19365;DHT22;9818;48.382;10.850;2022-10-26T12:20:35;20.40;99.90
19365;DHT22;9818;48.382;10.850;2022-10-26T12:23:11;20.50;99.90
19365;DHT22;9818;48.382;10.850;2022-10-26T12:25:40;20.40;99.90
19365;DHT22;9818;48.382;10.850;2022-10-26T12:28:38;20.30;99.90
19365;DHT22;9818;48.382;10.850;2022-10-26T12:34:10;20.40;99.90
19365;DHT22;9818;48.382;10.850;2022-10-26T12:37:20;20.50;99.90
19365;DHT22;9818;48.382;10.850;2022-10-26T12:39:50;20.80;99.90
19365;DHT22;9818;48.382;10.850;2022-10-26T12:42:28;20.70;99.90
19365;DHT22;9818;48.382;10.850;2022-10-26T12:45:06;20.60;99.90
19365;DHT22;9818;48.382;10.850;2022-10-26T12:48:01;20.90;99.90
19365;DHT22;9818;48.382;10.850;2022-10-26T12:50:30;21.30;99.90
19365;DHT22;9818;48.382;10.850;2022-10-26T12:53:04;21.30;99.90
19365;DHT22;9818;48.382;10.850;2022-10-26T12:56:04;21.30;99.90
19365;DHT22;9818;48.382;10.850;2022-10-26T13:07:42;21.60;99.90
19365;DHT22;9818;48.382;10.850;2022-10-26T13:10:22;21.40;99.90
19365;DHT22;9818;48.382;10.850;2022-10-26T13:12:55;21.40;99.90
19365;DHT22;9818;48.382;10.850;2022-10-26T13:15:27;21.50;99.90
19365;DHT22;9818;48.382;10.850;2022-10-26T13:17:59;21.50;99.90
19365;DHT22;9818;48.382;10.850;2022-10-26T13:20:29;21.50;99.90
19365;DHT22;9818;48.382;10.850;2022-10-26T13:22:59;21.70;99.90
19365;DHT22;9818;48.382;10.850;2022-10-26T13:25:31;21.50;99.90
19365;DHT22;9818;48.382;10.850;2022-10-26T13:28:03;21.30;99.90
19365;DHT22;9818;48.382;10.850;2022-10-26T13:30:44;21.00;99.90
19365;DHT22;9818;48.382;10.850;2022-10-26T13:33:34;20.80;99.90
19365;DHT22;9818;48.382;10.850;2022-10-26T13:36:14;20.60;99.90
19365;DHT22;9818;48.382;10.850;2022-10-26T13:38:46;20.40;99.90
19365;DHT22;9818;48.382;10.850;2022-10-26T13:41:22;20.40;99.90
19365;DHT22;9818;48.382;10.850;2022-10-26T13:43:53;20.50;99.90
19365;DHT22;9818;48.382;10.850;2022-10-26T13:46:24;20.70;99.90
19365;DHT22;9818;48.382;10.850;2022-10-26T13:48:53;20.80;99.90
19365;DHT22;9818;48.382;10.850;2022-10-26T13:51:29;20.70;99.90
19365;DHT22;9818;48.382;10.850;2022-10-26T13:54:00;20.80;99.90
19365;DHT22;9818;48.382;10.850;2022-10-26T13:56:34;21.00;99.90
19365;DHT22;9818;48.382;10.850;2022-10-26T13:59:04;21.00;99.90
19365;DHT22;9818;48.382;10.850;2022-10-26T14:01:34;21.00;99.90
19365;DHT22;9818;48.382;10.850;2022-10-26T14:04:13;21.30;99.90
19365;DHT22;9818;48.382;10.850;2022-10-26T14:06:42;21.70;99.90
19365;DHT22;9818;48.382;10.850;2022-10-26T14:09:15;21.70;99.90
19365;DHT22;9818;48.382;10.850;2022-10-26T14:11:51;21.30;99.90
19365;DHT22;9818;48.382;10.850;2022-10-26T14:14:20;21.20;99.90
19365;DHT22;9818;48.382;10.850;2022-10-26T14:16:50;21.10;99.90
19365;DHT22;9818;48.382;10.850;2022-10-26T14:19:19;20.90;99.90
19365;DHT22;9818;48.382;10.850;2022-10-26T14:21:49;20.80;99.90
19365;DHT22;9818;48.382;10.850;2022-10-26T14:24:19;20.70;99.90
19365;DHT22;9818;48.382;10.850;2022-10-26T14:26:50;20.50;99.90
19365;DHT22;9818;48.382;10.850;2022-10-26T14:29:19;20.40;99.90
19365;DHT22;9818;48.382;10.850;2022-10-26T14:31:49;20.20;99.90
19365;DHT22;9818;48.382;10.850;2022-10-26T14:34:19;20.10;99.90
19365;DHT22;9818;48.382;10.850;2022-10-26T14:36:50;20.10;99.90
19365;DHT22;9818;48.382;10.850;2022-10-26T14:39:30;20.00;99.90
19365;DHT22;9818;48.382;10.850;2022-10-26T14:42:14;19.90;99.90
19365;DHT22;9818;48.382;10.850;2022-10-26T14:44:46;19.80;99.90
19365;DHT22;9818;48.382;10.850;2022-10-26T14:47:22;19.70;99.90
19365;DHT22;9818;48.382;10.850;2022-10-26T14:49:51;19.80;99.90
19365;DHT22;9818;48.382;10.850;2022-10-26T14:52:23;19.70;99.90
19365;DHT22;9818;48.382;10.850;2022-10-26T14:55:00;19.70;99.90
19365;DHT22;9818;48.382;10.850;2022-10-26T14:57:34;19.60;99.90
19365;DHT22;9818;48.382;10.850;2022-10-26T15:00:12;19.50;99.90
19365;DHT22;9818;48.382;10.850;2022-10-26T15:02:43;19.60;99.90
19365;DHT22;9818;48.382;10.850;2022-10-26T15:05:24;19.40;99.90
19365;DHT22;9818;48.382;10.850;2022-10-26T15:07:54;19.40;99.90
19365;DHT22;9818;48.382;10.850;2022-10-26T15:10:44;19.30;99.90
19365;DHT22;9818;48.382;10.850;2022-10-26T15:13:27;19.20;99.90
19365;DHT22;9818;48.382;10.850;2022-10-26T15:15:57;19.10;99.90
19365;DHT22;9818;48.382;10.850;2022-10-26T15:18:34;18.90;99.90
19365;DHT22;9818;48.382;10.850;2022-10-26T15:21:05;18.90;99.90
19365;DHT22;9818;48.382;10.850;2022-10-26T15:23:36;18.90;99.90
19365;DHT22;9818;48.382;10.850;2022-10-26T15:26:08;18.90;99.90
19365;DHT22;9818;48.382;10.850;2022-10-26T15:28:40;18.80;99.90
19365;DHT22;9818;48.382;10.850;2022-10-26T15:31:23;18.70;99.90
19365;DHT22;9818;48.382;10.850;2022-10-26T15:34:11;18.70;99.90
19365;DHT22;9818;48.382;10.850;2022-10-26T15:36:40;18.60;99.90
19365;DHT22;9818;48.382;10.850;2022-10-26T15:39:08;18.70;99.90
19365;DHT22;9818;48.382;10.850;2022-10-26T15:41:37;18.70;99.90
19365;DHT22;9818;48.382;10.850;2022-10-26T15:44:15;18.70;99.90
19365;DHT22;9818;48.382;10.850;2022-10-26T15:46:44;18.60;99.90
19365;DHT22;9818;48.382;10.850;2022-10-26T15:49:14;18.70;99.90
19365;DHT22;9818;48.382;10.850;2022-10-26T15:51:43;18.70;99.90
19365;DHT22;9818;48.382;10.850;2022-10-26T15:54:12;18.60;99.90
19365;DHT22;9818;48.382;10.850;2022-10-26T15:56:40;18.50;99.90
19365;DHT22;9818;48.382;10.850;2022-10-26T15:59:15;18.50;99.90
19365;DHT22;9818;48.382;10.850;2022-10-26T16:01:43;18.40;99.90
19365;DHT22;9818;48.382;10.850;2022-10-26T16:04:12;18.30;99.90
19365;DHT22;9818;48.382;10.850;2022-10-26T16:06:40;18.30;99.90
19365;DHT22;9818;48.382;10.850;2022-10-26T16:09:09;18.20;99.90
19365;DHT22;9818;48.382;10.850;2022-10-26T16:11:40;18.10;99.90
19365;DHT22;9818;48.382;10.850;2022-10-26T16:14:08;18.10;99.90
19365;DHT22;9818;48.382;10.850;2022-10-26T16:16:39;18.00;99.90
19365;DHT22;9818;48.382;10.850;2022-10-26T16:19:08;18.00;99.90
19365;DHT22;9818;48.382;10.850;2022-10-26T16:21:37;17.90;99.90
19365;DHT22;9818;48.382;10.850;2022-10-26T16:24:06;17.90;99.90
19365;DHT22;9818;48.382;10.850;2022-10-26T16:26:35;17.80;99.90
19365;DHT22;9818;48.382;10.850;2022-10-26T16:29:03;17.80;99.90
19365;DHT22;9818;48.382;10.850;2022-10-26T16:31:31;17.70;99.90
19365;DHT22;9818;48.382;10.850;2022-10-26T16:34:02;17.60;99.90
19365;DHT22;9818;48.382;10.850;2022-10-26T16:36:31;17.50;99.90